createdAt,value
2017-07-28T00:02:18.643Z,4.35
2017-07-28T00:04:53.176Z,3.65
2017-07-28T00:07:27.473Z,3.60
2017-07-28T00:10:01.805Z,4.47
2017-07-28T00:12:37.138Z,5.03
2017-07-28T00:15:11.508Z,4.05
2017-07-28T00:17:45.848Z,3.97
2017-07-28T00:20:20.118Z,4.00
2017-07-28T00:22:55.229Z,3.70
2017-07-28T00:25:29.889Z,5.10
2017-07-28T00:28:04.274Z,6.57
2017-07-28T00:30:38.684Z,5.37
2017-07-28T00:33:13.220Z,4.30
2017-07-28T00:35:47.780Z,5.68
2017-07-28T00:38:22.136Z,4.72
2017-07-28T00:40:56.599Z,5.40
2017-07-28T00:43:31.074Z,5.70
2017-07-28T00:46:06.528Z,5.40
2017-07-28T00:48:41.564Z,4.78
2017-07-28T00:51:16.208Z,4.72
2017-07-28T00:53:50.726Z,5.20
2017-07-28T00:56:25.098Z,4.93
2017-07-28T00:58:59.569Z,4.95
2017-07-28T01:01:33.957Z,5.30
2017-07-28T01:04:08.399Z,4.72
2017-07-28T01:06:42.748Z,4.75
2017-07-28T01:09:17.130Z,4.35
2017-07-28T01:11:51.427Z,4.80
2017-07-28T01:14:25.840Z,5.25
2017-07-28T01:17:01.040Z,4.70
2017-07-28T01:19:35.427Z,6.22
2017-07-28T01:22:09.804Z,5.62
2017-07-28T01:24:44.245Z,6.00
2017-07-28T01:27:18.609Z,5.20
2017-07-28T01:29:53.044Z,6.12
2017-07-28T01:32:27.580Z,6.37
2017-07-28T01:35:01.928Z,6.43
2017-07-28T01:37:36.288Z,5.62
2017-07-28T01:40:11.380Z,5.78
2017-07-28T01:42:45.756Z,6.12
2017-07-28T01:45:20.195Z,6.15
2017-07-28T01:47:54.559Z,7.10
2017-07-28T01:50:29.124Z,6.20
2017-07-28T01:53:03.635Z,6.15
2017-07-28T01:55:38.892Z,6.50
2017-07-28T01:58:13.524Z,5.87
2017-07-28T02:00:47.976Z,7.80
2017-07-28T02:03:22.457Z,6.97
2017-07-28T02:05:56.872Z,5.00
2017-07-28T02:08:31.652Z,6.25
2017-07-28T02:11:06.100Z,5.65
2017-07-28T02:13:40.675Z,5.90
2017-07-28T02:16:15.033Z,7.30
2017-07-28T02:18:49.663Z,6.05
2017-07-28T02:21:24.032Z,5.78
2017-07-28T02:23:58.520Z,6.60
2017-07-28T02:26:33.685Z,5.95
2017-07-28T02:29:08.100Z,6.30
2017-07-28T02:31:42.658Z,6.30
2017-07-28T02:34:17.148Z,7.45
2017-07-28T02:36:51.584Z,7.07
2017-07-28T02:39:26.100Z,6.20
2017-07-28T02:42:00.523Z,6.32
2017-07-28T02:44:34.976Z,6.30
2017-07-28T02:47:09.313Z,5.93
2017-07-28T02:49:43.650Z,6.20
2017-07-28T02:52:18.126Z,6.85
2017-07-28T02:54:52.504Z,6.10
2017-07-28T02:57:27.123Z,7.03
2017-07-28T03:00:01.568Z,7.53
2017-07-28T03:02:35.856Z,6.55
2017-07-28T03:05:10.344Z,6.57
2017-07-28T03:07:44.756Z,6.85
2017-07-28T03:10:19.100Z,7.03
2017-07-28T03:12:53.763Z,7.40
2017-07-28T03:15:28.241Z,7.25
2017-07-28T03:18:02.729Z,8.65
2017-07-28T03:20:37.149Z,7.35
2017-07-28T03:23:11.627Z,6.82
2017-07-28T03:25:45.984Z,6.70
2017-07-28T03:28:20.392Z,7.60
2017-07-28T03:30:54.805Z,7.87
2017-07-28T03:33:29.260Z,7.35
2017-07-28T03:36:03.809Z,7.35
2017-07-28T03:38:38.159Z,7.03
2017-07-28T03:41:13.433Z,5.82
2017-07-28T03:43:47.778Z,6.50
2017-07-28T03:46:22.328Z,7.15
2017-07-28T03:48:56.738Z,8.10
2017-07-28T03:51:31.420Z,8.60
2017-07-28T03:54:05.940Z,8.93
2017-07-28T03:56:40.560Z,7.43
2017-07-28T03:59:14.900Z,7.40
2017-07-28T04:01:49.614Z,7.55
2017-07-28T04:04:23.962Z,7.20
2017-07-28T04:06:58.328Z,8.02
2017-07-28T04:09:33.640Z,8.30
2017-07-28T04:12:07.996Z,8.35
2017-07-28T04:14:42.461Z,8.38
2017-07-28T04:17:16.833Z,8.18
2017-07-28T04:19:51.257Z,9.65
2017-07-28T04:22:26.561Z,7.78
2017-07-28T04:25:01.888Z,8.25
2017-07-28T04:27:36.365Z,8.00
2017-07-28T04:30:10.713Z,9.20
2017-07-28T04:32:45.239Z,9.10
2017-07-28T04:35:19.700Z,8.90
2017-07-28T04:37:54.132Z,9.35
2017-07-28T04:40:28.575Z,9.43
2017-07-28T04:43:03.245Z,8.77
2017-07-28T04:45:37.777Z,9.63
2017-07-28T04:48:12.169Z,9.25
2017-07-28T04:50:46.715Z,9.18
2017-07-28T04:53:21.352Z,11.73
2017-07-28T04:55:55.663Z,12.13
2017-07-28T04:58:30.178Z,14.75
2017-07-28T05:01:04.491Z,13.48
2017-07-28T05:03:39.057Z,12.10
2017-07-28T05:06:13.445Z,11.30
2017-07-28T05:08:49.051Z,11.30
2017-07-28T05:11:26.176Z,11.88
2017-07-28T05:14:01.004Z,11.10
2017-07-28T05:16:35.292Z,10.98
2017-07-28T05:19:09.784Z,9.43
2017-07-28T05:21:44.965Z,9.00
2017-07-28T05:24:19.424Z,10.00
2017-07-28T05:26:55.830Z,8.90
2017-07-28T05:29:30.095Z,8.38
2017-07-28T05:32:07.304Z,7.75
2017-07-28T05:34:43.528Z,6.97
2017-07-28T05:37:18.692Z,8.25
2017-07-28T05:39:53.147Z,6.68
2017-07-28T05:42:27.608Z,6.70
2017-07-28T05:45:02.184Z,6.80
2017-07-28T05:47:36.634Z,5.20
2017-07-28T05:50:11.093Z,5.40
2017-07-28T05:52:46.264Z,5.20
2017-07-28T05:55:20.621Z,5.35
2017-07-28T05:57:54.956Z,4.15
2017-07-28T06:00:29.465Z,5.07
2017-07-28T06:03:03.831Z,5.05
2017-07-28T06:05:40.282Z,5.40
2017-07-28T06:08:14.654Z,5.03
2017-07-28T06:10:49.021Z,6.28
2017-07-28T06:13:24.123Z,5.25
2017-07-28T06:15:58.478Z,4.43
2017-07-28T06:18:33.007Z,4.82
2017-07-28T06:21:07.785Z,4.10
2017-07-28T06:23:42.248Z,3.58
2017-07-28T06:26:17.317Z,3.90
2017-07-28T06:28:53.017Z,3.37
2017-07-28T06:31:29.453Z,3.53
2017-07-28T06:34:03.842Z,3.78
2017-07-28T06:36:39.214Z,3.65
2017-07-28T06:39:14.021Z,4.25
2017-07-28T06:41:48.604Z,3.58
2017-07-28T06:44:23.626Z,3.83
2017-07-28T06:46:58.028Z,4.18
2017-07-28T06:49:33.136Z,3.75
2017-07-28T06:52:07.801Z,3.80
2017-07-28T06:54:43.110Z,3.60
2017-07-28T06:57:17.660Z,3.92
2017-07-28T06:59:52.317Z,4.47
2017-07-28T07:02:26.797Z,3.80
2017-07-28T07:05:01.359Z,3.50
2017-07-28T07:07:35.731Z,3.25
2017-07-28T07:10:10.267Z,3.50
2017-07-28T07:12:44.592Z,2.25
2017-07-28T07:15:19.818Z,3.05
2017-07-28T07:17:54.304Z,2.55
2017-07-28T07:20:28.625Z,3.60
2017-07-28T07:23:03.053Z,2.72
2017-07-28T07:25:37.536Z,2.25
2017-07-28T07:28:12.794Z,4.15
2017-07-28T07:30:47.179Z,3.00
2017-07-28T07:33:21.827Z,2.87
2017-07-28T07:35:56.416Z,3.10
2017-07-28T07:38:30.685Z,2.50
2017-07-28T07:41:05.285Z,3.75
2017-07-28T07:43:39.677Z,2.75
2017-07-28T07:46:14.037Z,4.20
2017-07-28T07:48:48.313Z,2.90
2017-07-28T07:51:22.591Z,2.70
2017-07-28T07:53:57.029Z,3.87
2017-07-28T07:56:32.001Z,3.20
2017-07-28T07:59:06.352Z,2.92
2017-07-28T08:01:40.837Z,3.70
2017-07-28T08:04:15.305Z,3.35
2017-07-28T08:06:49.802Z,2.67
2017-07-28T08:09:24.238Z,5.00
2017-07-28T08:11:58.597Z,3.15
2017-07-28T08:14:32.921Z,3.70
2017-07-28T08:17:07.400Z,3.35
2017-07-28T08:19:41.732Z,3.53
2017-07-28T08:22:16.929Z,3.72
2017-07-28T08:24:51.397Z,3.25
2017-07-28T08:27:25.775Z,3.65
2017-07-28T08:30:00.316Z,4.12
2017-07-28T08:32:34.780Z,4.40
2017-07-28T08:35:09.292Z,3.10
2017-07-28T08:37:43.557Z,3.28
2017-07-28T08:40:17.897Z,3.80
2017-07-28T08:42:52.533Z,4.30
2017-07-28T08:45:27.016Z,3.42
2017-07-28T08:48:02.082Z,3.47
2017-07-28T08:50:36.569Z,4.25
2017-07-28T08:53:10.948Z,5.55
2017-07-28T08:55:45.412Z,4.62
2017-07-28T08:58:19.708Z,3.75
2017-07-28T09:00:54.156Z,4.85
2017-07-28T09:03:28.472Z,4.10
2017-07-28T09:06:02.769Z,3.53
2017-07-28T09:08:37.143Z,4.15
2017-07-28T09:11:11.657Z,3.65
2017-07-28T09:13:46.761Z,3.63
2017-07-28T09:16:21.226Z,2.80
2017-07-28T09:18:55.765Z,3.10
2017-07-28T09:21:30.130Z,3.62
2017-07-28T09:24:08.707Z,3.30
2017-07-28T09:26:43.873Z,3.03
2017-07-28T09:29:18.240Z,3.10
2017-07-28T09:31:53.408Z,3.90
2017-07-28T09:34:27.757Z,3.10
2017-07-28T09:37:02.207Z,2.20
2017-07-28T09:39:36.621Z,3.45
2017-07-28T09:42:11.812Z,2.90
2017-07-28T09:44:46.214Z,3.60
2017-07-28T09:47:21.334Z,4.17
2017-07-28T09:49:55.780Z,3.07
2017-07-28T09:52:30.268Z,4.13
2017-07-28T09:55:04.697Z,2.80
2017-07-28T09:57:40.083Z,3.90
2017-07-28T10:00:14.376Z,3.20
2017-07-28T10:02:48.860Z,2.93
2017-07-28T10:05:23.296Z,4.00
2017-07-28T10:07:58.510Z,2.17
2017-07-28T10:10:32.912Z,2.43
2017-07-28T10:13:07.497Z,2.00
2017-07-28T10:15:42.744Z,2.90
2017-07-28T10:18:18.276Z,1.97
2017-07-28T10:20:54.358Z,3.28
2017-07-28T10:23:29.452Z,2.93
2017-07-28T10:26:05.732Z,2.63
2017-07-28T10:28:40.086Z,3.13
2017-07-28T10:31:14.660Z,2.80
2017-07-28T10:33:49.097Z,3.50
2017-07-28T10:36:23.592Z,2.90
2017-07-28T10:38:57.913Z,2.20
2017-07-28T10:41:32.187Z,2.93
2017-07-28T10:44:06.696Z,2.10
2017-07-28T10:46:41.131Z,2.20
2017-07-28T10:49:15.550Z,2.07
2017-07-28T10:51:50.077Z,2.40
2017-07-28T10:54:24.757Z,2.10
2017-07-28T10:56:59.084Z,3.28
2017-07-28T10:59:33.439Z,2.47
2017-07-28T11:02:07.872Z,2.70
2017-07-28T11:04:42.973Z,3.22
2017-07-28T11:07:17.588Z,3.17
2017-07-28T11:09:52.013Z,2.33
2017-07-28T11:12:26.346Z,3.10
2017-07-28T11:15:11.310Z,4.00
2017-07-28T11:17:45.628Z,2.23
2017-07-28T11:20:19.939Z,2.50
2017-07-28T11:22:54.296Z,3.33
2017-07-28T11:25:28.737Z,2.80
2017-07-28T11:28:03.109Z,2.87
2017-07-28T11:30:38.208Z,1.30
2017-07-28T11:33:12.548Z,2.53
2017-07-28T11:35:47.040Z,2.17
2017-07-28T11:38:21.469Z,2.00
2017-07-28T11:40:56.133Z,2.77
2017-07-28T11:43:30.634Z,1.77
2017-07-28T11:46:05.058Z,2.40
2017-07-28T11:48:39.464Z,1.87
2017-07-28T11:51:13.850Z,1.70
2017-07-28T11:53:48.421Z,2.43
2017-07-28T11:56:22.837Z,1.53
2017-07-28T11:58:57.250Z,1.87
2017-07-28T12:01:31.844Z,2.85
2017-07-28T12:04:06.504Z,1.80
2017-07-28T12:06:40.916Z,3.00
2017-07-28T12:09:15.230Z,1.67
2017-07-28T12:11:49.537Z,1.73
2017-07-28T12:14:23.881Z,1.90
2017-07-28T12:16:58.336Z,1.85
2017-07-28T12:19:32.816Z,2.15
2017-07-28T12:22:07.678Z,1.70
2017-07-28T12:24:42.074Z,2.33
2017-07-28T12:27:16.533Z,1.77
2017-07-28T12:29:51.597Z,2.12
2017-07-28T12:32:26.097Z,1.70
2017-07-28T12:35:15.319Z,1.60
2017-07-28T12:37:49.768Z,1.70
2017-07-28T12:40:24.212Z,1.60
2017-07-28T12:42:58.743Z,2.30
2017-07-28T12:45:33.235Z,1.80
2017-07-28T12:48:07.636Z,2.00
2017-07-28T12:50:41.941Z,1.30
2017-07-28T12:53:17.153Z,1.90
2017-07-28T12:55:52.279Z,2.20
2017-07-28T12:58:26.742Z,1.85
2017-07-28T13:01:01.116Z,2.15
2017-07-28T13:03:35.741Z,1.80
2017-07-28T13:06:10.976Z,1.75
2017-07-28T13:08:45.380Z,2.28
2017-07-28T13:11:19.673Z,2.45
2017-07-28T13:13:54.144Z,2.47
2017-07-28T13:16:28.556Z,3.12
2017-07-28T13:19:03.014Z,2.15
2017-07-28T13:21:37.384Z,2.17
2017-07-28T13:24:11.882Z,2.20
2017-07-28T13:26:47.172Z,1.90
2017-07-28T13:29:24.158Z,1.47
2017-07-28T13:31:58.772Z,2.10
2017-07-28T13:34:33.638Z,2.40
2017-07-28T13:37:08.039Z,2.83
2017-07-28T13:39:42.569Z,1.60
2017-07-28T13:42:17.019Z,2.33
2017-07-28T13:44:51.501Z,1.50
2017-07-28T13:47:25.946Z,2.83
2017-07-28T13:50:00.305Z,2.27
2017-07-28T13:52:34.934Z,2.27
2017-07-28T13:55:09.316Z,2.00
2017-07-28T13:57:43.718Z,2.17
2017-07-28T14:00:18.173Z,1.87
2017-07-28T14:02:52.498Z,1.70
2017-07-28T14:05:27.024Z,2.27
2017-07-28T14:08:01.748Z,2.12
2017-07-28T14:10:36.096Z,2.40
2017-07-28T14:13:10.405Z,2.40
2017-07-28T14:15:44.812Z,2.67
2017-07-28T14:18:19.147Z,2.70
2017-07-28T14:20:53.441Z,1.95
2017-07-28T14:23:27.983Z,3.40
2017-07-28T14:26:02.324Z,1.65
2017-07-28T14:28:36.726Z,3.40
2017-07-28T14:31:11.081Z,2.72
2017-07-28T14:33:45.549Z,2.00
2017-07-28T14:36:19.942Z,2.10
2017-07-28T14:38:54.532Z,1.80
2017-07-28T14:41:28.817Z,3.00
2017-07-28T14:44:03.408Z,2.40
2017-07-28T14:46:37.841Z,2.10
2017-07-28T14:49:12.584Z,2.40
2017-07-28T14:51:46.979Z,2.30
2017-07-28T14:54:22.380Z,2.25
2017-07-28T14:56:56.850Z,2.40
2017-07-28T14:59:31.325Z,2.37
2017-07-28T15:02:05.789Z,2.53
2017-07-28T15:04:40.176Z,3.00
2017-07-28T15:07:14.556Z,2.62
2017-07-28T15:09:48.888Z,2.20
2017-07-28T15:12:23.370Z,2.47
2017-07-28T15:14:58.396Z,2.70
2017-07-28T15:17:32.723Z,2.20
2017-07-28T15:20:07.214Z,3.10
2017-07-28T15:22:41.638Z,1.80
2017-07-28T15:25:16.060Z,2.23
2017-07-28T15:27:50.531Z,3.00
2017-07-28T15:30:25.073Z,1.83
2017-07-28T15:33:00.008Z,2.20
2017-07-28T15:35:34.621Z,2.80
2017-07-28T15:38:09.045Z,2.07
2017-07-28T15:40:43.447Z,1.93
2017-07-28T15:43:17.872Z,2.20
2017-07-28T15:45:52.652Z,2.83
2017-07-28T15:48:27.781Z,2.37
2017-07-28T15:51:02.654Z,2.30
2017-07-28T15:53:37.069Z,2.00
2017-07-28T15:56:11.421Z,1.90
2017-07-28T15:58:45.909Z,3.03
2017-07-28T16:01:21.116Z,2.10
2017-07-28T16:03:55.475Z,2.40
2017-07-28T16:06:30.021Z,2.20
2017-07-28T16:09:04.390Z,2.83
2017-07-28T16:11:38.821Z,3.30
2017-07-28T16:14:13.915Z,2.87
2017-07-28T16:16:48.437Z,2.58
2017-07-28T16:19:22.759Z,3.03
2017-07-28T16:21:57.268Z,3.22
2017-07-28T16:24:31.593Z,3.33
2017-07-28T16:27:06.057Z,2.65
2017-07-28T16:29:40.524Z,3.62
2017-07-28T16:32:14.957Z,3.50
2017-07-28T16:34:49.421Z,2.92
2017-07-28T16:37:23.818Z,2.70
2017-07-28T16:39:58.946Z,2.50
2017-07-28T16:42:33.464Z,3.03
2017-07-28T16:45:08.715Z,2.58
2017-07-28T16:47:43.228Z,3.00
2017-07-28T16:50:18.519Z,2.47
2017-07-28T16:52:52.902Z,3.60
2017-07-28T16:55:27.398Z,2.53
2017-07-28T16:58:02.124Z,2.87
2017-07-28T17:00:36.426Z,3.70
2017-07-28T17:03:10.752Z,3.00
2017-07-28T17:05:45.114Z,2.28
2017-07-28T17:08:19.617Z,2.45
2017-07-28T17:10:54.016Z,2.15
2017-07-28T17:13:29.393Z,2.12
2017-07-28T17:16:03.672Z,3.00
2017-07-28T17:18:38.229Z,2.60
2017-07-28T17:21:12.622Z,2.35
2017-07-28T17:23:47.033Z,1.73
2017-07-28T17:26:21.342Z,3.42
2017-07-28T17:28:55.692Z,2.50
2017-07-28T17:31:30.882Z,2.60
2017-07-28T17:34:05.256Z,3.15
2017-07-28T17:36:39.568Z,2.62
2017-07-28T17:39:14.022Z,2.75
2017-07-28T17:41:48.485Z,2.22
2017-07-28T17:44:22.935Z,2.50
2017-07-28T17:46:57.202Z,3.50
2017-07-28T17:49:31.733Z,2.72
2017-07-28T17:52:06.158Z,2.42
2017-07-28T17:54:40.683Z,3.05
2017-07-28T17:57:15.112Z,2.75
2017-07-28T17:59:49.701Z,3.03
2017-07-28T18:02:24.120Z,2.25
2017-07-28T18:04:58.468Z,2.15
2017-07-28T18:07:32.948Z,2.95
2017-07-28T18:10:07.257Z,3.60
2017-07-28T18:12:41.572Z,2.80
2017-07-28T18:15:16.032Z,2.50
2017-07-28T18:17:50.321Z,2.75
2017-07-28T18:20:24.772Z,2.08
2017-07-28T18:22:59.229Z,2.65
2017-07-28T18:25:33.913Z,2.58
2017-07-28T18:28:08.233Z,2.80
2017-07-28T18:30:42.808Z,2.55
2017-07-28T18:33:17.279Z,3.10
2017-07-28T18:35:51.602Z,2.87
2017-07-28T18:38:26.034Z,2.92
2017-07-28T18:41:00.385Z,2.50
2017-07-28T18:43:34.856Z,4.10
2017-07-28T18:46:09.221Z,2.40
2017-07-28T18:48:43.615Z,3.33
2017-07-28T18:51:18.085Z,2.65
2017-07-28T18:53:52.487Z,3.00
2017-07-28T18:56:26.839Z,2.35
2017-07-28T18:59:01.281Z,2.30
2017-07-28T19:01:35.900Z,2.75
2017-07-28T19:04:10.387Z,2.15
2017-07-28T19:06:44.749Z,2.65
2017-07-28T19:09:19.080Z,2.72
2017-07-28T19:11:53.536Z,2.70
2017-07-28T19:14:28.012Z,3.03
2017-07-28T19:17:02.718Z,2.85
2017-07-28T19:19:37.303Z,2.33
2017-07-28T19:22:11.794Z,2.75
2017-07-28T19:24:46.290Z,2.40
2017-07-28T19:27:21.528Z,3.25
2017-07-28T19:29:56.841Z,3.08
2017-07-28T19:32:31.272Z,3.80
2017-07-28T19:35:05.685Z,2.58
2017-07-28T19:37:40.399Z,2.35
2017-07-28T19:40:14.681Z,3.67
2017-07-28T19:42:49.160Z,3.40
2017-07-28T19:45:23.482Z,3.70
2017-07-28T19:47:58.118Z,3.20
2017-07-28T19:50:32.628Z,3.05
2017-07-28T19:53:07.120Z,4.12
2017-07-28T19:55:41.516Z,3.12
2017-07-28T19:58:16.586Z,3.62
2017-07-28T20:00:50.900Z,3.87
2017-07-28T20:03:25.533Z,4.07
2017-07-28T20:06:00.031Z,3.62
2017-07-28T20:08:34.577Z,3.70
2017-07-28T20:11:09.093Z,3.10
2017-07-28T20:13:43.750Z,3.83
2017-07-28T20:16:18.125Z,3.67
2017-07-28T20:18:53.164Z,3.65
2017-07-28T20:21:27.713Z,4.50
2017-07-28T20:24:02.136Z,5.07
2017-07-28T20:26:36.412Z,2.95
2017-07-28T20:29:11.001Z,3.85
2017-07-28T20:31:45.476Z,3.40
2017-07-28T20:34:19.831Z,3.92
2017-07-28T20:36:54.108Z,4.30
2017-07-28T20:39:28.621Z,4.03
2017-07-28T20:42:03.136Z,3.20
2017-07-28T20:44:37.552Z,4.12
2017-07-28T20:47:11.973Z,3.85
2017-07-28T20:49:46.433Z,4.45
2017-07-28T20:52:20.916Z,3.67
2017-07-28T20:54:55.688Z,4.12
2017-07-28T20:57:29.972Z,5.00
2017-07-28T21:00:04.322Z,3.45
2017-07-28T21:02:38.696Z,3.33
2017-07-28T21:05:13.153Z,3.40
2017-07-28T21:07:47.522Z,5.53
2017-07-28T21:10:21.914Z,4.85
2017-07-28T21:12:56.364Z,3.85
2017-07-28T21:15:31.504Z,4.97
2017-07-28T21:18:06.766Z,3.50
2017-07-28T21:20:41.529Z,4.50
2017-07-28T21:23:15.900Z,4.90
2017-07-28T21:25:50.203Z,5.10
2017-07-28T21:28:24.616Z,3.90
2017-07-28T21:30:59.095Z,4.35
2017-07-28T21:33:33.497Z,3.97
2017-07-28T21:36:08.141Z,5.35
2017-07-28T21:38:43.229Z,4.60
2017-07-28T21:41:17.997Z,4.97
2017-07-28T21:43:52.899Z,6.32
2017-07-28T21:46:28.156Z,5.60
2017-07-28T21:49:03.368Z,6.15
2017-07-28T21:51:37.887Z,5.93
2017-07-28T21:54:12.244Z,5.90
2017-07-28T21:56:46.827Z,5.65
2017-07-28T21:59:21.244Z,6.03
2017-07-28T22:01:56.780Z,5.50
2017-07-28T22:04:31.114Z,6.03
2017-07-28T22:07:05.488Z,4.90
2017-07-28T22:09:39.964Z,5.30
2017-07-28T22:12:14.624Z,5.12
2017-07-28T22:14:48.993Z,4.40
2017-07-28T22:17:23.618Z,5.00
2017-07-28T22:19:58.032Z,4.32
2017-07-28T22:22:32.567Z,5.15
2017-07-28T22:25:07.088Z,5.15
2017-07-28T22:27:41.640Z,5.20
2017-07-28T22:30:16.102Z,6.03
2017-07-28T22:32:51.362Z,4.90
2017-07-28T22:35:26.605Z,4.57
2017-07-28T22:38:01.080Z,5.30
2017-07-28T22:40:35.389Z,5.20
2017-07-28T22:43:09.877Z,5.45
2017-07-28T22:45:44.378Z,4.40
2017-07-28T22:48:18.844Z,5.32
2017-07-28T22:50:54.049Z,4.82
2017-07-28T22:53:29.405Z,4.18
2017-07-28T22:56:04.604Z,4.90
2017-07-28T22:58:39.987Z,4.55
2017-07-28T23:01:14.305Z,4.78
2017-07-28T23:03:49.655Z,5.10
2017-07-28T23:06:24.048Z,4.65
2017-07-28T23:08:58.379Z,5.10
2017-07-28T23:11:32.904Z,5.97
2017-07-28T23:14:07.346Z,4.57
2017-07-28T23:16:41.772Z,5.85
2017-07-28T23:19:16.278Z,5.37
2017-07-28T23:21:50.689Z,4.57
2017-07-28T23:24:25.252Z,4.62
2017-07-28T23:26:59.704Z,5.65
2017-07-28T23:29:34.372Z,4.80
2017-07-28T23:32:08.798Z,5.87
2017-07-28T23:34:43.181Z,4.97
2017-07-28T23:37:17.699Z,5.37
2017-07-28T23:39:52.132Z,5.10
2017-07-28T23:42:26.652Z,4.28
2017-07-28T23:45:01.393Z,4.30
2017-07-28T23:47:35.883Z,4.55
2017-07-28T23:50:10.324Z,4.75
2017-07-28T23:52:44.739Z,4.25
2017-07-28T23:55:19.490Z,5.65
2017-07-28T23:57:53.949Z,3.80
